sensor_id;sensor_type;location;lat;lon;timestamp;pressure;altitude;pressure_sealevel;temperature;humidity
34235;BME280;20500;49.856;20.290;2022-12-19T00:00:05;101104.48;;;-16.32;67.23
34235;BME280;20500;49.856;20.290;2022-12-19T00:03:15;101101.78;;;-16.29;67.12
34235;BME280;20500;49.856;20.290;2022-12-19T00:06:18;101101.98;;;-16.28;66.99
34235;BME280;20500;49.856;20.290;2022-12-19T00:09:21;101098.47;;;-16.29;66.93
34235;BME280;20500;49.856;20.290;2022-12-19T00:12:24;101090.27;;;-16.39;66.80
34235;BME280;20500;49.856;20.290;2022-12-19T00:15:27;101090.20;;;-16.42;66.75
34235;BME280;20500;49.856;20.290;2022-12-19T00:18:30;101094.98;;;-16.52;66.72
34235;BME280;20500;49.856;20.290;2022-12-19T00:21:34;101098.62;;;-16.53;66.92
34235;BME280;20500;49.856;20.290;2022-12-19T00:24:37;101097.09;;;-16.52;66.86
34235;BME280;20500;49.856;20.290;2022-12-19T00:27:40;101097.48;;;-16.57;66.71
34235;BME280;20500;49.856;20.290;2022-12-19T00:30:42;101089.86;;;-16.56;66.83
34235;BME280;20500;49.856;20.290;2022-12-19T00:33:46;101077.64;;;-16.59;66.59
34235;BME280;20500;49.856;20.290;2022-12-19T00:36:49;101076.92;;;-16.66;66.57
34235;BME280;20500;49.856;20.290;2022-12-19T00:39:52;101081.46;;;-16.66;66.73
34235;BME280;20500;49.856;20.290;2022-12-19T00:42:55;101092.16;;;-16.61;66.64
34235;BME280;20500;49.856;20.290;2022-12-19T00:46:02;101090.40;;;-16.70;66.49
34235;BME280;20500;49.856;20.290;2022-12-19T00:49:05;101094.44;;;-16.77;66.27
34235;BME280;20500;49.856;20.290;2022-12-19T00:52:08;101095.13;;;-16.85;66.55
34235;BME280;20500;49.856;20.290;2022-12-19T00:55:11;101093.02;;;-16.86;66.35
34235;BME280;20500;49.856;20.290;2022-12-19T00:58:21;101092.60;;;-16.96;66.25
34235;BME280;20500;49.856;20.290;2022-12-19T01:01:26;101092.47;;;-17.01;66.31
34235;BME280;20500;49.856;20.290;2022-12-19T01:04:29;101094.07;;;-17.06;66.34
34235;BME280;20500;49.856;20.290;2022-12-19T01:07:37;101090.30;;;-17.04;66.44
34235;BME280;20500;49.856;20.290;2022-12-19T01:10:45;101089.39;;;-17.06;66.55
34235;BME280;20500;49.856;20.290;2022-12-19T01:13:48;101086.43;;;-17.06;66.46
34235;BME280;20500;49.856;20.290;2022-12-19T01:16:51;101078.92;;;-17.08;66.51
34235;BME280;20500;49.856;20.290;2022-12-19T01:19:54;101075.52;;;-17.05;66.63
34235;BME280;20500;49.856;20.290;2022-12-19T01:22:57;101072.38;;;-16.99;66.78
34235;BME280;20500;49.856;20.290;2022-12-19T01:26:02;101069.19;;;-16.94;66.55
34235;BME280;20500;49.856;20.290;2022-12-19T01:29:05;101070.27;;;-16.93;66.67
34235;BME280;20500;49.856;20.290;2022-12-19T01:32:08;101064.50;;;-16.94;66.51
34235;BME280;20500;49.856;20.290;2022-12-19T01:35:11;101058.08;;;-17.02;66.30
34235;BME280;20500;49.856;20.290;2022-12-19T01:38:23;101045.16;;;-17.12;66.18
34235;BME280;20500;49.856;20.290;2022-12-19T01:41:26;101031.27;;;-17.19;66.09
34235;BME280;20500;49.856;20.290;2022-12-19T01:44:32;101024.80;;;-17.27;66.17
34235;BME280;20500;49.856;20.290;2022-12-19T01:47:40;101020.84;;;-17.33;66.09
34235;BME280;20500;49.856;20.290;2022-12-19T01:50:53;101019.61;;;-17.34;66.17
34235;BME280;20500;49.856;20.290;2022-12-19T01:54:06;101016.86;;;-17.33;66.37
34235;BME280;20500;49.856;20.290;2022-12-19T01:57:11;101012.88;;;-17.32;66.26
34235;BME280;20500;49.856;20.290;2022-12-19T02:00:16;101010.65;;;-17.31;66.23
34235;BME280;20500;49.856;20.290;2022-12-19T02:03:22;101007.96;;;-17.28;66.24
34235;BME280;20500;49.856;20.290;2022-12-19T02:06:28;100999.45;;;-17.28;66.22
34235;BME280;20500;49.856;20.290;2022-12-19T02:09:33;100988.24;;;-17.32;65.87
34235;BME280;20500;49.856;20.290;2022-12-19T02:12:38;100985.71;;;-17.36;66.01
34235;BME280;20500;49.856;20.290;2022-12-19T02:15:47;100984.21;;;-17.34;66.03
34235;BME280;20500;49.856;20.290;2022-12-19T02:18:59;100979.19;;;-17.34;66.10
34235;BME280;20500;49.856;20.290;2022-12-19T02:22:11;100972.29;;;-17.33;66.05
34235;BME280;20500;49.856;20.290;2022-12-19T02:25:40;100967.23;;;-17.26;66.33
34235;BME280;20500;49.856;20.290;2022-12-19T02:28:59;100961.29;;;-17.20;66.36
34235;BME280;20500;49.856;20.290;2022-12-19T02:32:08;100963.98;;;-17.16;66.35
34235;BME280;20500;49.856;20.290;2022-12-19T02:35:22;100964.40;;;-17.13;66.25
34235;BME280;20500;49.856;20.290;2022-12-19T02:38:29;100958.46;;;-17.15;66.30
34235;BME280;20500;49.856;20.290;2022-12-19T02:41:36;100956.38;;;-17.16;66.27
34235;BME280;20500;49.856;20.290;2022-12-19T02:44:46;100957.95;;;-17.14;66.30
34235;BME280;20500;49.856;20.290;2022-12-19T02:47:51;100951.67;;;-17.23;66.12
34235;BME280;20500;49.856;20.290;2022-12-19T02:50:54;100946.21;;;-17.27;66.13
34235;BME280;20500;49.856;20.290;2022-12-19T02:53:57;100942.61;;;-17.25;66.34
34235;BME280;20500;49.856;20.290;2022-12-19T02:57:04;100947.34;;;-17.24;66.16
34235;BME280;20500;49.856;20.290;2022-12-19T03:00:15;100942.52;;;-17.29;66.21
34235;BME280;20500;49.856;20.290;2022-12-19T03:03:21;100931.38;;;-17.30;66.17
34235;BME280;20500;49.856;20.290;2022-12-19T03:06:25;100926.36;;;-17.37;65.97
34235;BME280;20500;49.856;20.290;2022-12-19T03:09:38;100923.36;;;-17.47;66.06
34235;BME280;20500;49.856;20.290;2022-12-19T03:12:47;100917.13;;;-17.54;65.93
34235;BME280;20500;49.856;20.290;2022-12-19T03:15:52;100919.42;;;-17.59;65.88
34235;BME280;20500;49.856;20.290;2022-12-19T03:18:55;100916.45;;;-17.60;66.21
34235;BME280;20500;49.856;20.290;2022-12-19T03:21:59;100914.67;;;-17.55;66.19
34235;BME280;20500;49.856;20.290;2022-12-19T03:25:03;100915.61;;;-17.58;66.14
34235;BME280;20500;49.856;20.290;2022-12-19T03:28:10;100910.29;;;-17.63;66.02
34235;BME280;20500;49.856;20.290;2022-12-19T03:31:16;100908.87;;;-17.65;66.07
34235;BME280;20500;49.856;20.290;2022-12-19T03:34:24;100897.15;;;-17.62;66.22
34235;BME280;20500;49.856;20.290;2022-12-19T03:37:31;100890.02;;;-17.63;66.11
34235;BME280;20500;49.856;20.290;2022-12-19T03:40:36;100892.59;;;-17.71;65.99
34235;BME280;20500;49.856;20.290;2022-12-19T03:43:43;100895.56;;;-17.70;66.03
34235;BME280;20500;49.856;20.290;2022-12-19T03:46:48;100896.18;;;-17.65;66.15
34235;BME280;20500;49.856;20.290;2022-12-19T03:49:53;100899.58;;;-17.62;66.22
34235;BME280;20500;49.856;20.290;2022-12-19T03:53:02;100902.81;;;-17.57;66.26
34235;BME280;20500;49.856;20.290;2022-12-19T03:56:14;100895.87;;;-17.50;66.31
34235;BME280;20500;49.856;20.290;2022-12-19T03:59:21;100893.90;;;-17.45;66.13
34235;BME280;20500;49.856;20.290;2022-12-19T04:02:26;100897.61;;;-17.42;66.26
34235;BME280;20500;49.856;20.290;2022-12-19T04:05:30;100906.34;;;-17.33;66.37
34235;BME280;20500;49.856;20.290;2022-12-19T04:08:36;100902.46;;;-17.28;66.35
34235;BME280;20500;49.856;20.290;2022-12-19T04:11:42;100900.36;;;-17.29;66.31
34235;BME280;20500;49.856;20.290;2022-12-19T04:14:49;100906.41;;;-17.30;66.42
34235;BME280;20500;49.856;20.290;2022-12-19T04:17:55;100911.94;;;-17.23;66.26
34235;BME280;20500;49.856;20.290;2022-12-19T04:21:02;100909.15;;;-17.24;66.25
34235;BME280;20500;49.856;20.290;2022-12-19T04:24:13;100901.63;;;-17.27;66.16
34235;BME280;20500;49.856;20.290;2022-12-19T04:27:18;100901.52;;;-17.24;66.26
34235;BME280;20500;49.856;20.290;2022-12-19T04:30:22;100902.92;;;-17.15;66.37
34235;BME280;20500;49.856;20.290;2022-12-19T04:33:25;100903.18;;;-17.11;66.43
34235;BME280;20500;49.856;20.290;2022-12-19T04:36:28;100901.71;;;-17.15;66.20
34235;BME280;20500;49.856;20.290;2022-12-19T04:39:31;100903.23;;;-17.17;66.22
34235;BME280;20500;49.856;20.290;2022-12-19T04:42:34;100900.95;;;-17.17;66.23
34235;BME280;20500;49.856;20.290;2022-12-19T04:45:37;100892.84;;;-17.16;66.36
34235;BME280;20500;49.856;20.290;2022-12-19T04:48:42;100889.73;;;-17.16;66.23
34235;BME280;20500;49.856;20.290;2022-12-19T04:51:45;100888.85;;;-17.15;66.25
34235;BME280;20500;49.856;20.290;2022-12-19T04:54:47;100886.27;;;-17.15;66.30
34235;BME280;20500;49.856;20.290;2022-12-19T04:57:50;100886.68;;;-17.19;66.30
34235;BME280;20500;49.856;20.290;2022-12-19T05:00:53;100885.19;;;-17.24;66.22
34235;BME280;20500;49.856;20.290;2022-12-19T05:03:56;100884.69;;;-17.24;66.50
34235;BME280;20500;49.856;20.290;2022-12-19T05:07:06;100880.98;;;-17.18;66.49
34235;BME280;20500;49.856;20.290;2022-12-19T05:10:09;100879.99;;;-17.08;66.57
34235;BME280;20500;49.856;20.290;2022-12-19T05:13:12;100874.49;;;-17.06;66.53
34235;BME280;20500;49.856;20.290;2022-12-19T05:16:15;100867.11;;;-17.09;66.40
34235;BME280;20500;49.856;20.290;2022-12-19T05:19:18;100868.43;;;-17.05;66.50
34235;BME280;20500;49.856;20.290;2022-12-19T05:22:21;100872.46;;;-17.03;66.40
34235;BME280;20500;49.856;20.290;2022-12-19T05:25:24;100873.65;;;-17.04;66.40
34235;BME280;20500;49.856;20.290;2022-12-19T05:28:27;100871.73;;;-17.12;66.31
34235;BME280;20500;49.856;20.290;2022-12-19T05:31:30;100869.77;;;-17.23;66.40
34235;BME280;20500;49.856;20.290;2022-12-19T05:34:33;100866.00;;;-17.29;66.36
34235;BME280;20500;49.856;20.290;2022-12-19T05:37:35;100860.52;;;-17.33;66.39
34235;BME280;20500;49.856;20.290;2022-12-19T05:40:38;100860.58;;;-17.31;66.57
34235;BME280;20500;49.856;20.290;2022-12-19T05:43:41;100857.58;;;-17.33;66.65
34235;BME280;20500;49.856;20.290;2022-12-19T05:46:44;100859.56;;;-17.30;66.76
34235;BME280;20500;49.856;20.290;2022-12-19T05:49:48;100865.98;;;-17.22;66.59
34235;BME280;20500;49.856;20.290;2022-12-19T05:52:50;100868.66;;;-17.18;66.65
34235;BME280;20500;49.856;20.290;2022-12-19T05:56:02;100864.33;;;-17.17;66.68
34235;BME280;20500;49.856;20.290;2022-12-19T05:59:05;100859.98;;;-17.18;66.64
34235;BME280;20500;49.856;20.290;2022-12-19T06:02:08;100860.43;;;-17.14;66.82
34235;BME280;20500;49.856;20.290;2022-12-19T06:05:11;100871.20;;;-17.05;66.74
34235;BME280;20500;49.856;20.290;2022-12-19T06:08:14;100875.40;;;-17.04;66.60
34235;BME280;20500;49.856;20.290;2022-12-19T06:11:16;100871.74;;;-17.04;66.68
34235;BME280;20500;49.856;20.290;2022-12-19T06:14:19;100866.58;;;-17.02;66.61
34235;BME280;20500;49.856;20.290;2022-12-19T06:17:22;100856.75;;;-16.99;66.68
34235;BME280;20500;49.856;20.290;2022-12-19T06:20:25;100858.34;;;-16.98;66.53
34235;BME280;20500;49.856;20.290;2022-12-19T06:23:28;100857.14;;;-16.97;66.61
34235;BME280;20500;49.856;20.290;2022-12-19T06:26:31;100847.95;;;-16.97;66.64
34235;BME280;20500;49.856;20.290;2022-12-19T06:29:34;100849.10;;;-17.00;66.50
34235;BME280;20500;49.856;20.290;2022-12-19T06:32:37;100847.27;;;-16.97;66.53
34235;BME280;20500;49.856;20.290;2022-12-19T06:35:40;100848.16;;;-16.95;66.59
34235;BME280;20500;49.856;20.290;2022-12-19T06:38:43;100834.83;;;-17.01;66.38
34235;BME280;20500;49.856;20.290;2022-12-19T06:41:46;100830.46;;;-17.11;66.40
34235;BME280;20500;49.856;20.290;2022-12-19T06:45:09;100834.49;;;-17.09;66.57
34235;BME280;20500;49.856;20.290;2022-12-19T06:48:11;100832.10;;;-17.07;66.63
34235;BME280;20500;49.856;20.290;2022-12-19T06:51:14;100828.61;;;-17.08;66.40
34235;BME280;20500;49.856;20.290;2022-12-19T06:54:17;100844.63;;;-17.06;66.58
34235;BME280;20500;49.856;20.290;2022-12-19T06:57:20;100848.70;;;-17.02;66.45
34235;BME280;20500;49.856;20.290;2022-12-19T07:00:23;100840.69;;;-17.03;66.56
34235;BME280;20500;49.856;20.290;2022-12-19T07:03:31;100837.23;;;-17.03;66.66
34235;BME280;20500;49.856;20.290;2022-12-19T07:06:38;100834.14;;;-17.01;66.53
34235;BME280;20500;49.856;20.290;2022-12-19T07:09:41;100829.83;;;-17.00;66.62
34235;BME280;20500;49.856;20.290;2022-12-19T07:12:44;100830.86;;;-17.00;66.58
34235;BME280;20500;49.856;20.290;2022-12-19T07:15:47;100831.84;;;-17.03;66.52
34235;BME280;20500;49.856;20.290;2022-12-19T07:18:50;100830.23;;;-17.05;66.68
34235;BME280;20500;49.856;20.290;2022-12-19T07:21:53;100825.59;;;-17.03;66.65
34235;BME280;20500;49.856;20.290;2022-12-19T07:24:57;100824.27;;;-17.00;66.92
34235;BME280;20500;49.856;20.290;2022-12-19T07:28:00;100813.42;;;-16.87;66.97
34235;BME280;20500;49.856;20.290;2022-12-19T07:31:03;100809.35;;;-16.82;67.10
34235;BME280;20500;49.856;20.290;2022-12-19T07:34:06;100802.69;;;-16.76;67.12
34235;BME280;20500;49.856;20.290;2022-12-19T07:37:09;100795.14;;;-16.69;66.99
34235;BME280;20500;49.856;20.290;2022-12-19T07:40:13;100797.83;;;-16.64;66.98
34235;BME280;20500;49.856;20.290;2022-12-19T07:43:15;100793.63;;;-16.58;67.06
34235;BME280;20500;49.856;20.290;2022-12-19T07:46:18;100791.89;;;-16.57;67.01
34235;BME280;20500;49.856;20.290;2022-12-19T07:49:23;100794.20;;;-16.55;66.93
34235;BME280;20500;49.856;20.290;2022-12-19T07:52:26;100794.74;;;-16.53;66.95
34235;BME280;20500;49.856;20.290;2022-12-19T07:55:29;100797.45;;;-16.48;67.02
34235;BME280;20500;49.856;20.290;2022-12-19T07:58:32;100794.91;;;-16.44;66.97
34235;BME280;20500;49.856;20.290;2022-12-19T08:01:34;100792.73;;;-16.39;67.11
34235;BME280;20500;49.856;20.290;2022-12-19T08:04:38;100792.52;;;-16.32;67.21
34235;BME280;20500;49.856;20.290;2022-12-19T08:07:40;100791.27;;;-16.25;67.20
34235;BME280;20500;49.856;20.290;2022-12-19T08:10:43;100789.48;;;-16.16;67.34
34235;BME280;20500;49.856;20.290;2022-12-19T08:13:47;100788.70;;;-16.11;67.14
34235;BME280;20500;49.856;20.290;2022-12-19T08:16:50;100787.21;;;-16.06;67.39
34235;BME280;20500;49.856;20.290;2022-12-19T08:20:13;100786.41;;;-16.02;67.22
34235;BME280;20500;49.856;20.290;2022-12-19T08:23:16;100786.62;;;-15.99;67.14
34235;BME280;20500;49.856;20.290;2022-12-19T08:26:20;100785.80;;;-15.97;67.27
34235;BME280;20500;49.856;20.290;2022-12-19T08:29:27;100782.25;;;-15.90;67.50
34235;BME280;20500;49.856;20.290;2022-12-19T08:32:30;100785.50;;;-15.83;67.65
34235;BME280;20500;49.856;20.290;2022-12-19T08:35:34;100784.06;;;-15.74;67.60
34235;BME280;20500;49.856;20.290;2022-12-19T08:38:37;100786.56;;;-15.69;67.60
34235;BME280;20500;49.856;20.290;2022-12-19T08:41:41;100782.98;;;-15.64;67.71
34235;BME280;20500;49.856;20.290;2022-12-19T08:44:44;100776.52;;;-15.54;67.95
34235;BME280;20500;49.856;20.290;2022-12-19T08:47:47;100763.77;;;-15.42;68.00
34235;BME280;20500;49.856;20.290;2022-12-19T08:50:51;100763.89;;;-15.34;68.16
34235;BME280;20500;49.856;20.290;2022-12-19T08:53:55;100763.19;;;-15.20;68.14
34235;BME280;20500;49.856;20.290;2022-12-19T08:56:58;100767.31;;;-15.10;68.22
34235;BME280;20500;49.856;20.290;2022-12-19T09:00:01;100763.23;;;-15.03;68.25
34235;BME280;20500;49.856;20.290;2022-12-19T09:03:05;100761.25;;;-14.94;68.35
34235;BME280;20500;49.856;20.290;2022-12-19T09:06:12;100752.14;;;-14.82;68.42
34235;BME280;20500;49.856;20.290;2022-12-19T09:09:21;100746.16;;;-14.72;68.43
34235;BME280;20500;49.856;20.290;2022-12-19T09:12:24;100736.50;;;-14.61;68.72
34235;BME280;20500;49.856;20.290;2022-12-19T09:15:26;100729.23;;;-14.55;68.74
34235;BME280;20500;49.856;20.290;2022-12-19T09:18:29;100725.99;;;-14.44;68.79
34235;BME280;20500;49.856;20.290;2022-12-19T09:21:33;100725.59;;;-14.33;68.96
34235;BME280;20500;49.856;20.290;2022-12-19T09:24:36;100723.56;;;-14.23;69.07
34235;BME280;20500;49.856;20.290;2022-12-19T09:27:39;100719.79;;;-14.15;69.08
34235;BME280;20500;49.856;20.290;2022-12-19T09:31:04;100720.39;;;-14.05;69.35
34235;BME280;20500;49.856;20.290;2022-12-19T09:34:07;100718.88;;;-13.96;69.32
34235;BME280;20500;49.856;20.290;2022-12-19T09:37:11;100718.60;;;-13.86;69.41
34235;BME280;20500;49.856;20.290;2022-12-19T09:40:19;100726.02;;;-13.72;69.65
34235;BME280;20500;49.856;20.290;2022-12-19T09:43:31;100730.46;;;-13.59;69.70
34235;BME280;20500;49.856;20.290;2022-12-19T09:46:47;100725.13;;;-13.43;69.87
34235;BME280;20500;49.856;20.290;2022-12-19T09:49:53;100713.68;;;-13.29;70.05
34235;BME280;20500;49.856;20.290;2022-12-19T09:52:59;100703.23;;;-13.13;70.11
34235;BME280;20500;49.856;20.290;2022-12-19T09:56:07;100687.90;;;-12.93;70.28
34235;BME280;20500;49.856;20.290;2022-12-19T09:59:18;100658.94;;;-12.71;70.65
34235;BME280;20500;49.856;20.290;2022-12-19T10:02:31;100653.88;;;-12.52;70.64
34235;BME280;20500;49.856;20.290;2022-12-19T10:05:41;100659.30;;;-12.37;70.74
34235;BME280;20500;49.856;20.290;2022-12-19T10:09:11;100659.11;;;-12.22;70.81
34235;BME280;20500;49.856;20.290;2022-12-19T10:12:45;100655.94;;;-12.07;70.99
34235;BME280;20500;49.856;20.290;2022-12-19T10:16:04;100650.14;;;-11.90;71.04
34235;BME280;20500;49.856;20.290;2022-12-19T10:19:13;100657.61;;;-11.71;71.23
34235;BME280;20500;49.856;20.290;2022-12-19T10:22:26;100659.09;;;-11.49;71.48
34235;BME280;20500;49.856;20.290;2022-12-19T10:25:50;100655.50;;;-11.26;71.49
34235;BME280;20500;49.856;20.290;2022-12-19T10:29:07;100644.68;;;-11.02;71.72
34235;BME280;20500;49.856;20.290;2022-12-19T10:32:21;100643.13;;;-10.79;71.80
34235;BME280;20500;49.856;20.290;2022-12-19T10:35:31;100640.36;;;-10.58;72.01
34235;BME280;20500;49.856;20.290;2022-12-19T10:38:38;100626.69;;;-10.38;72.00
34235;BME280;20500;49.856;20.290;2022-12-19T10:41:56;100627.16;;;-10.18;72.15
34235;BME280;20500;49.856;20.290;2022-12-19T10:45:07;100611.48;;;-9.94;72.42
34235;BME280;20500;49.856;20.290;2022-12-19T10:48:15;100608.39;;;-9.67;72.54
34235;BME280;20500;49.856;20.290;2022-12-19T10:51:24;100605.97;;;-9.43;72.79
34235;BME280;20500;49.856;20.290;2022-12-19T10:54:38;100609.20;;;-9.20;72.74
34235;BME280;20500;49.856;20.290;2022-12-19T10:57:42;100604.30;;;-8.98;72.82
34235;BME280;20500;49.856;20.290;2022-12-19T11:01:01;100597.64;;;-8.76;72.85
34235;BME280;20500;49.856;20.290;2022-12-19T11:04:23;100593.05;;;-8.53;73.01
34235;BME280;20500;49.856;20.290;2022-12-19T11:07:29;100593.16;;;-8.29;73.01
34235;BME280;20500;49.856;20.290;2022-12-19T11:10:38;100588.09;;;-8.12;72.91
34235;BME280;20500;49.856;20.290;2022-12-19T11:14:18;100590.96;;;-7.96;73.04
34235;BME280;20500;49.856;20.290;2022-12-19T11:17:42;100585.50;;;-7.78;73.00
34235;BME280;20500;49.856;20.290;2022-12-19T11:21:12;100570.39;;;-7.62;73.19
34235;BME280;20500;49.856;20.290;2022-12-19T11:24:39;100558.63;;;-7.48;73.44
34235;BME280;20500;49.856;20.290;2022-12-19T11:28:15;100559.41;;;-7.35;73.25
34235;BME280;20500;49.856;20.290;2022-12-19T11:31:39;100553.55;;;-7.25;73.19
34235;BME280;20500;49.856;20.290;2022-12-19T11:35:09;100550.74;;;-7.18;73.31
34235;BME280;20500;49.856;20.290;2022-12-19T11:38:19;100545.02;;;-7.07;73.51
34235;BME280;20500;49.856;20.290;2022-12-19T11:41:28;100541.09;;;-6.97;73.38
34235;BME280;20500;49.856;20.290;2022-12-19T11:44:39;100537.33;;;-6.87;73.58
34235;BME280;20500;49.856;20.290;2022-12-19T11:47:50;100535.33;;;-6.77;73.64
34235;BME280;20500;49.856;20.290;2022-12-19T11:51:00;100533.77;;;-6.71;73.68
34235;BME280;20500;49.856;20.290;2022-12-19T11:54:13;100533.95;;;-6.64;73.60
34235;BME280;20500;49.856;20.290;2022-12-19T11:57:19;100530.19;;;-6.55;73.80
34235;BME280;20500;49.856;20.290;2022-12-19T12:00:23;100525.93;;;-6.47;73.75
34235;BME280;20500;49.856;20.290;2022-12-19T12:03:55;100521.81;;;-6.38;73.87
34235;BME280;20500;49.856;20.290;2022-12-19T12:07:05;100518.33;;;-6.27;73.90
34235;BME280;20500;49.856;20.290;2022-12-19T12:10:30;100520.09;;;-6.20;73.87
34235;BME280;20500;49.856;20.290;2022-12-19T12:14:17;100507.23;;;-6.15;74.10
34235;BME280;20500;49.856;20.290;2022-12-19T12:17:49;100494.68;;;-6.08;73.97
34235;BME280;20500;49.856;20.290;2022-12-19T12:21:22;100485.45;;;-6.01;74.05
34235;BME280;20500;49.856;20.290;2022-12-19T12:24:52;100484.45;;;-5.96;74.02
34235;BME280;20500;49.856;20.290;2022-12-19T12:28:43;100479.11;;;-5.90;74.20
34235;BME280;20500;49.856;20.290;2022-12-19T12:32:19;100477.92;;;-5.79;74.33
34235;BME280;20500;49.856;20.290;2022-12-19T12:35:45;100484.10;;;-5.67;74.38
34235;BME280;20500;49.856;20.290;2022-12-19T12:39:18;100476.05;;;-5.58;74.30
34235;BME280;20500;49.856;20.290;2022-12-19T12:42:41;100469.52;;;-5.53;74.34
34235;BME280;20500;49.856;20.290;2022-12-19T12:45:50;100464.17;;;-5.46;74.53
34235;BME280;20500;49.856;20.290;2022-12-19T12:48:58;100462.03;;;-5.39;74.48
34235;BME280;20500;49.856;20.290;2022-12-19T12:52:06;100456.59;;;-5.35;74.42
34235;BME280;20500;49.856;20.290;2022-12-19T12:55:16;100455.91;;;-5.30;74.51
34235;BME280;20500;49.856;20.290;2022-12-19T12:58:43;100455.91;;;-5.25;74.53
34235;BME280;20500;49.856;20.290;2022-12-19T13:02:12;100460.95;;;-5.17;74.58
34235;BME280;20500;49.856;20.290;2022-12-19T13:05:28;100462.88;;;-5.10;74.81
34235;BME280;20500;49.856;20.290;2022-12-19T13:08:38;100459.92;;;-5.07;74.64
34235;BME280;20500;49.856;20.290;2022-12-19T13:11:48;100459.55;;;-5.06;74.76
34235;BME280;20500;49.856;20.290;2022-12-19T13:15:41;100458.50;;;-5.06;74.60
34235;BME280;20500;49.856;20.290;2022-12-19T13:19:11;100458.67;;;-5.06;74.76
34235;BME280;20500;49.856;20.290;2022-12-19T13:22:37;100445.55;;;-5.06;74.86
34235;BME280;20500;49.856;20.290;2022-12-19T13:25:50;100435.52;;;-5.02;74.85
34235;BME280;20500;49.856;20.290;2022-12-19T13:28:53;100432.09;;;-5.00;74.78
34235;BME280;20500;49.856;20.290;2022-12-19T13:32:16;100431.21;;;-5.00;74.78
34235;BME280;20500;49.856;20.290;2022-12-19T13:35:32;100434.92;;;-5.00;74.84
34235;BME280;20500;49.856;20.290;2022-12-19T13:38:58;100435.27;;;-5.00;74.99
34235;BME280;20500;49.856;20.290;2022-12-19T13:42:23;100431.96;;;-5.01;74.94
34235;BME280;20500;49.856;20.290;2022-12-19T13:45:50;100427.38;;;-5.07;74.77
34235;BME280;20500;49.856;20.290;2022-12-19T13:48:57;100433.85;;;-5.10;74.89
34235;BME280;20500;49.856;20.290;2022-12-19T13:52:05;100435.45;;;-5.10;74.97
34235;BME280;20500;49.856;20.290;2022-12-19T13:55:13;100429.19;;;-5.13;74.86
34235;BME280;20500;49.856;20.290;2022-12-19T13:58:22;100432.30;;;-5.17;74.95
34235;BME280;20500;49.856;20.290;2022-12-19T14:01:33;100424.98;;;-5.26;74.81
34235;BME280;20500;49.856;20.290;2022-12-19T14:04:39;100420.45;;;-5.34;74.92
34235;BME280;20500;49.856;20.290;2022-12-19T14:07:42;100414.00;;;-5.36;74.92
34235;BME280;20500;49.856;20.290;2022-12-19T14:10:48;100415.44;;;-5.38;74.99
34235;BME280;20500;49.856;20.290;2022-12-19T14:14:15;100413.92;;;-5.40;75.00
34235;BME280;20500;49.856;20.290;2022-12-19T14:17:37;100405.69;;;-5.48;74.93
34235;BME280;20500;49.856;20.290;2022-12-19T14:20:39;100405.84;;;-5.53;75.09
34235;BME280;20500;49.856;20.290;2022-12-19T14:24:13;100404.69;;;-5.61;74.68
34235;BME280;20500;49.856;20.290;2022-12-19T14:27:17;100403.38;;;-5.70;74.92
34235;BME280;20500;49.856;20.290;2022-12-19T14:30:42;100403.91;;;-5.70;75.02
34235;BME280;20500;49.856;20.290;2022-12-19T14:33:48;100397.07;;;-5.72;75.17
34235;BME280;20500;49.856;20.290;2022-12-19T14:37:27;100393.89;;;-5.78;75.12
34235;BME280;20500;49.856;20.290;2022-12-19T14:40:51;100395.39;;;-5.86;74.72
34235;BME280;20500;49.856;20.290;2022-12-19T14:44:10;100405.20;;;-6.01;74.67
34235;BME280;20500;49.856;20.290;2022-12-19T14:47:36;100398.84;;;-6.12;74.96
34235;BME280;20500;49.856;20.290;2022-12-19T14:51:08;100390.23;;;-6.20;74.98
34235;BME280;20500;49.856;20.290;2022-12-19T14:54:32;100381.20;;;-6.25;75.17
34235;BME280;20500;49.856;20.290;2022-12-19T14:57:56;100379.73;;;-6.30;74.95
34235;BME280;20500;49.856;20.290;2022-12-19T15:01:22;100371.92;;;-6.41;74.80
34235;BME280;20500;49.856;20.290;2022-12-19T15:04:30;100366.70;;;-6.50;74.71
34235;BME280;20500;49.856;20.290;2022-12-19T15:07:56;100368.65;;;-6.57;74.84
34235;BME280;20500;49.856;20.290;2022-12-19T15:11:01;100365.93;;;-6.66;74.65
34235;BME280;20500;49.856;20.290;2022-12-19T15:14:42;100372.76;;;-6.77;74.65
34235;BME280;20500;49.856;20.290;2022-12-19T15:18:12;100366.65;;;-6.86;74.56
34235;BME280;20500;49.856;20.290;2022-12-19T15:21:18;100370.06;;;-6.95;74.59
34235;BME280;20500;49.856;20.290;2022-12-19T15:24:20;100371.46;;;-7.01;74.53
34235;BME280;20500;49.856;20.290;2022-12-19T15:27:24;100366.02;;;-7.10;74.54
34235;BME280;20500;49.856;20.290;2022-12-19T15:30:29;100359.67;;;-7.16;74.60
34235;BME280;20500;49.856;20.290;2022-12-19T15:33:34;100352.59;;;-7.22;74.64
34235;BME280;20500;49.856;20.290;2022-12-19T15:36:37;100344.14;;;-7.29;74.65
34235;BME280;20500;49.856;20.290;2022-12-19T15:39:40;100341.79;;;-7.34;74.78
34235;BME280;20500;49.856;20.290;2022-12-19T15:42:46;100342.60;;;-7.39;74.71
34235;BME280;20500;49.856;20.290;2022-12-19T15:45:50;100342.41;;;-7.46;74.58
34235;BME280;20500;49.856;20.290;2022-12-19T15:48:53;100331.09;;;-7.58;74.49
34235;BME280;20500;49.856;20.290;2022-12-19T15:51:56;100336.11;;;-7.69;74.51
34235;BME280;20500;49.856;20.290;2022-12-19T15:54:59;100327.52;;;-7.78;74.55
34235;BME280;20500;49.856;20.290;2022-12-19T15:58:04;100325.02;;;-7.84;74.47
34235;BME280;20500;49.856;20.290;2022-12-19T16:01:07;100316.71;;;-7.91;74.47
34235;BME280;20500;49.856;20.290;2022-12-19T16:04:11;100318.42;;;-7.96;74.50
34235;BME280;20500;49.856;20.290;2022-12-19T16:07:16;100314.52;;;-8.02;74.50